createdAt,value
2018-08-04T00:02:10.296Z,19.59
2018-08-04T00:04:39.276Z,19.63
2018-08-04T00:07:08.226Z,19.58
2018-08-04T00:09:36.879Z,19.63
2018-08-04T00:12:05.531Z,19.67
2018-08-04T00:14:34.216Z,19.76
2018-08-04T00:17:02.990Z,19.80
2018-08-04T00:19:31.691Z,19.75
2018-08-04T00:22:00.322Z,19.69
2018-08-04T00:24:28.959Z,19.74
2018-08-04T00:26:58.441Z,19.76
2018-08-04T00:29:27.018Z,19.63
2018-08-04T00:31:55.941Z,19.59
2018-08-04T00:34:24.582Z,19.63
2018-08-04T00:36:53.220Z,19.56
2018-08-04T00:39:21.879Z,19.57
2018-08-04T00:41:50.534Z,19.64
2018-08-04T00:44:19.159Z,19.57
2018-08-04T00:46:47.802Z,19.53
2018-08-04T00:49:16.434Z,19.48
2018-08-04T00:51:45.056Z,19.51
2018-08-04T00:54:13.727Z,19.43
2018-08-04T00:56:42.377Z,19.29
2018-08-04T00:59:11.014Z,19.29
2018-08-04T01:01:40.000Z,19.25
2018-08-04T01:04:08.658Z,19.19
2018-08-04T01:06:37.649Z,19.07
2018-08-04T01:09:08.240Z,19.08
2018-08-04T01:11:36.934Z,19.04
2018-08-04T01:14:05.606Z,18.97
2018-08-04T01:16:34.287Z,18.85
2018-08-04T01:19:02.980Z,18.75
2018-08-04T01:21:31.663Z,18.76
2018-08-04T01:24:00.546Z,18.74
2018-08-04T01:26:29.235Z,18.72
2018-08-04T01:28:57.878Z,18.77
2018-08-04T01:31:26.520Z,18.80
2018-08-04T01:33:55.172Z,18.78
2018-08-04T01:36:23.814Z,19.10
2018-08-04T01:38:52.479Z,19.16
2018-08-04T01:41:21.150Z,19.15
2018-08-04T01:43:50.063Z,19.15
2018-08-04T01:46:18.742Z,19.18
2018-08-04T01:48:47.462Z,19.31
2018-08-04T01:51:16.218Z,19.24
2018-08-04T01:53:44.991Z,19.08
2018-08-04T01:56:13.608Z,19.16
2018-08-04T01:58:42.273Z,19.32
2018-08-04T02:01:11.007Z,19.24
2018-08-04T02:03:39.650Z,19.20
2018-08-04T02:06:08.342Z,19.23
2018-08-04T02:08:37.016Z,19.06
2018-08-04T02:11:05.649Z,18.88
2018-08-04T02:13:34.376Z,19.02
2018-08-04T02:16:03.018Z,19.10
2018-08-04T02:18:31.650Z,18.92
2018-08-04T02:21:00.382Z,18.67
2018-08-04T02:23:29.078Z,18.49
2018-08-04T02:25:57.989Z,18.61
2018-08-04T02:28:26.668Z,18.90
2018-08-04T02:30:55.499Z,19.21
2018-08-04T02:33:24.127Z,19.16
2018-08-04T02:35:52.787Z,19.13
2018-08-04T02:38:21.442Z,19.19
2018-08-04T02:40:50.089Z,19.05
2018-08-04T02:43:18.758Z,18.76
2018-08-04T02:45:47.421Z,18.88
2018-08-04T02:48:16.611Z,18.93
2018-08-04T02:50:45.281Z,18.95
2018-08-04T02:53:14.211Z,18.81
2018-08-04T02:55:42.896Z,18.73
2018-08-04T02:58:11.600Z,18.68
2018-08-04T03:00:40.260Z,18.95
2018-08-04T03:03:09.027Z,18.62
2018-08-04T03:05:38.276Z,18.93
2018-08-04T03:08:07.579Z,18.89
2018-08-04T03:10:36.944Z,18.60
2018-08-04T03:13:05.636Z,18.15
2018-08-04T03:15:34.551Z,18.02
2018-08-04T03:18:03.195Z,17.81
2018-08-04T03:20:31.866Z,17.72
2018-08-04T03:23:01.272Z,17.75
2018-08-04T03:25:30.183Z,17.89
2018-08-04T03:27:59.113Z,17.96
2018-08-04T03:30:27.904Z,18.20
2018-08-04T03:32:56.887Z,18.36
2018-08-04T03:35:25.611Z,18.61
2018-08-04T03:37:54.313Z,18.86
2018-08-04T03:40:22.930Z,19.07
2018-08-04T03:42:51.602Z,19.23
2018-08-04T03:45:20.594Z,19.34
2018-08-04T03:47:49.247Z,19.25
2018-08-04T03:50:18.191Z,19.12
2018-08-04T03:52:46.866Z,18.88
2018-08-04T03:55:15.587Z,18.89
2018-08-04T03:57:44.843Z,19.19
2018-08-04T04:00:13.664Z,19.47
2018-08-04T04:02:42.634Z,19.67
2018-08-04T04:05:11.317Z,19.63
2018-08-04T04:07:40.029Z,19.44
2018-08-04T04:10:08.718Z,19.48
2018-08-04T04:12:37.448Z,19.51
2018-08-04T04:15:06.920Z,19.67
2018-08-04T04:17:39.756Z,19.82
2018-08-04T04:20:08.802Z,19.67
2018-08-04T04:22:37.472Z,19.48
2018-08-04T04:25:06.176Z,19.46
2018-08-04T04:27:34.957Z,19.55
2018-08-04T04:30:05.351Z,19.43
2018-08-04T04:32:34.400Z,19.19
2018-08-04T04:35:03.419Z,19.29
2018-08-04T04:37:32.468Z,19.32
2018-08-04T04:40:01.759Z,19.35
2018-08-04T04:42:30.999Z,19.47
2018-08-04T04:44:59.958Z,19.54
2018-08-04T04:47:29.142Z,20.26
2018-08-04T04:49:58.326Z,21.34
2018-08-04T04:52:27.588Z,21.57
2018-08-04T04:54:56.474Z,21.96
2018-08-04T04:57:25.346Z,22.18
2018-08-04T04:59:54.099Z,22.36
2018-08-04T05:02:22.818Z,22.66
2018-08-04T05:04:51.481Z,22.49
2018-08-04T05:07:20.102Z,21.94
2018-08-04T05:09:48.890Z,21.99
2018-08-04T05:12:17.814Z,22.08
2018-08-04T05:14:46.511Z,22.25
2018-08-04T05:17:15.466Z,22.55
2018-08-04T05:19:44.686Z,22.87
2018-08-04T05:22:13.866Z,23.35
2018-08-04T05:24:42.839Z,23.78
2018-08-04T05:27:11.500Z,24.47
2018-08-04T05:29:40.183Z,24.05
2018-08-04T05:32:09.406Z,24.30
2018-08-04T05:34:38.123Z,24.31
2018-08-04T05:37:07.078Z,24.62
2018-08-04T05:39:35.812Z,24.25
2018-08-04T05:42:04.786Z,24.09
2018-08-04T05:44:33.998Z,24.06
2018-08-04T05:47:02.630Z,24.60
2018-08-04T05:49:31.370Z,24.79
2018-08-04T05:52:00.370Z,24.80
2018-08-04T05:54:29.146Z,24.71
2018-08-04T05:56:58.334Z,25.16
2018-08-04T05:59:27.602Z,25.65
2018-08-04T06:01:56.407Z,25.41
2018-08-04T06:04:25.095Z,25.45
2018-08-04T06:06:53.791Z,26.07
2018-08-04T06:09:22.483Z,26.41
2018-08-04T06:11:51.452Z,26.51
2018-08-04T06:14:20.707Z,26.85
2018-08-04T06:16:49.671Z,26.99
2018-08-04T06:19:18.360Z,27.16
2018-08-04T06:21:47.029Z,27.06
2018-08-04T06:24:16.432Z,27.30
2018-08-04T06:26:45.053Z,26.93
2018-08-04T06:29:14.096Z,26.73
2018-08-04T06:31:42.837Z,26.56
2018-08-04T06:34:11.963Z,26.99
2018-08-04T06:36:41.170Z,27.07
2018-08-04T06:39:09.846Z,27.18
2018-08-04T06:41:38.802Z,27.60
2018-08-04T06:44:07.809Z,27.54
2018-08-04T06:46:36.755Z,28.00
2018-08-04T06:49:05.795Z,28.02
2018-08-04T06:51:35.536Z,28.24
2018-08-04T06:54:04.359Z,28.25
2018-08-04T06:56:33.303Z,28.83
2018-08-04T06:59:01.922Z,29.08
2018-08-04T07:01:30.588Z,29.23
2018-08-04T07:03:59.243Z,28.94
2018-08-04T07:06:27.862Z,29.69
2018-08-04T07:08:57.797Z,29.78
2018-08-04T07:11:27.227Z,29.20
2018-08-04T07:13:55.941Z,28.77
2018-08-04T07:16:24.888Z,28.95
2018-08-04T07:18:53.860Z,28.86
2018-08-04T07:21:22.544Z,28.94
2018-08-04T07:23:51.698Z,28.68
2018-08-04T07:26:20.894Z,28.40
2018-08-04T07:28:49.820Z,28.92
2018-08-04T07:31:18.450Z,29.33
2018-08-04T07:33:47.044Z,29.71
2018-08-04T07:36:15.687Z,29.86
2018-08-04T07:38:44.297Z,29.93
2018-08-04T07:41:12.907Z,29.91
2018-08-04T07:43:41.557Z,30.34
2018-08-04T07:46:10.280Z,30.48
2018-08-04T07:48:39.307Z,30.05
2018-08-04T07:51:08.199Z,29.91
2018-08-04T07:53:37.449Z,29.51
2018-08-04T07:56:06.520Z,29.82
2018-08-04T07:58:35.760Z,29.70
2018-08-04T08:01:04.910Z,29.35
2018-08-04T08:03:33.815Z,29.61
2018-08-04T08:06:02.397Z,30.04
2018-08-04T08:08:31.002Z,30.18
2018-08-04T08:10:59.614Z,29.72
2018-08-04T08:13:28.283Z,29.35
2018-08-04T08:15:56.919Z,29.97
2018-08-04T08:18:25.831Z,30.15
2018-08-04T08:20:54.439Z,30.26
2018-08-04T08:23:23.047Z,30.54
2018-08-04T08:26:16.658Z,29.29
2018-08-04T08:28:45.339Z,30.28
2018-08-04T08:31:14.020Z,30.33
2018-08-04T08:33:42.697Z,30.37
2018-08-04T08:36:11.367Z,30.08
2018-08-04T08:38:39.963Z,30.24
2018-08-04T08:41:08.908Z,31.21
2018-08-04T08:43:37.577Z,31.64
2018-08-04T08:46:06.188Z,30.09
2018-08-04T08:48:34.824Z,30.64
2018-08-04T08:51:03.443Z,30.62
2018-08-04T08:53:32.302Z,30.31
2018-08-04T08:56:00.718Z,30.20
2018-08-04T08:58:29.634Z,30.23
2018-08-04T09:00:58.259Z,30.83
2018-08-04T09:03:26.838Z,30.68
2018-08-04T09:05:55.544Z,31.55
2018-08-04T09:08:24.427Z,32.51
2018-08-04T09:10:53.053Z,30.62
2018-08-04T09:13:21.761Z,29.00
2018-08-04T09:15:50.372Z,28.13
2018-08-04T09:18:19.002Z,28.09
2018-08-04T09:20:47.583Z,29.72
2018-08-04T09:23:16.492Z,30.05
2018-08-04T09:25:45.132Z,30.65
2018-08-04T09:28:13.830Z,30.12
2018-08-04T09:30:42.774Z,29.89
2018-08-04T09:33:11.430Z,30.07
2018-08-04T09:35:40.077Z,30.44
2018-08-04T09:38:08.658Z,30.93
2018-08-04T09:40:37.483Z,31.43
2018-08-04T09:43:06.209Z,31.50
2018-08-04T09:45:34.918Z,32.50
2018-08-04T09:48:03.580Z,32.66
2018-08-04T09:50:32.192Z,31.64
2018-08-04T09:53:00.839Z,29.95
2018-08-04T09:55:29.450Z,30.74
2018-08-04T09:57:58.146Z,31.17
2018-08-04T10:00:27.615Z,31.00
2018-08-04T10:02:56.329Z,31.00
2018-08-04T10:05:24.956Z,32.04
2018-08-04T10:07:53.552Z,32.65
2018-08-04T10:10:22.169Z,32.61
2018-08-04T10:12:50.848Z,32.13
2018-08-04T10:15:19.766Z,31.54
2018-08-04T10:17:48.440Z,30.68
2018-08-04T10:20:17.110Z,30.82
2018-08-04T10:22:45.752Z,31.36
2018-08-04T10:25:14.431Z,32.35
2018-08-04T10:27:43.038Z,32.84
2018-08-04T10:30:12.317Z,32.86
2018-08-04T10:32:41.069Z,32.00
2018-08-04T10:35:09.848Z,31.89
2018-08-04T10:37:38.654Z,31.09
2018-08-04T10:40:07.430Z,31.20
2018-08-04T10:42:36.229Z,32.08
2018-08-04T10:45:05.776Z,32.35
2018-08-04T10:47:34.369Z,30.80
2018-08-04T10:50:03.036Z,29.93
2018-08-04T10:52:32.337Z,29.39
2018-08-04T10:55:00.980Z,30.33
2018-08-04T10:57:29.644Z,30.36
2018-08-04T10:59:58.288Z,30.83
2018-08-04T11:02:26.922Z,31.33
2018-08-04T11:04:55.528Z,31.91
2018-08-04T11:07:24.277Z,32.06
2018-08-04T11:09:52.967Z,32.49
2018-08-04T11:12:21.583Z,31.26
2018-08-04T11:14:50.272Z,29.66
2018-08-04T11:17:18.909Z,30.09
2018-08-04T11:19:47.527Z,31.38
2018-08-04T11:22:16.595Z,31.51
2018-08-04T11:24:45.212Z,32.12
2018-08-04T11:27:13.809Z,32.46
2018-08-04T11:29:42.464Z,32.75
2018-08-04T11:32:11.078Z,32.71
2018-08-04T11:34:39.699Z,32.08
2018-08-04T11:37:08.324Z,32.00
2018-08-04T11:39:36.938Z,31.96
2018-08-04T11:42:05.610Z,31.57
2018-08-04T11:44:34.267Z,31.24
2018-08-04T11:47:02.846Z,30.20
2018-08-04T11:49:31.790Z,29.23
2018-08-04T11:52:00.427Z,28.91
2018-08-04T11:54:29.097Z,29.01
2018-08-04T11:56:57.728Z,29.88
2018-08-04T11:59:26.651Z,30.69
2018-08-04T12:01:55.286Z,30.30
2018-08-04T12:04:23.932Z,29.78
2018-08-04T12:06:52.552Z,29.41
2018-08-04T12:09:21.173Z,29.02
2018-08-04T12:11:49.838Z,29.21
2018-08-04T12:14:18.519Z,30.05
2018-08-04T12:16:47.277Z,30.91
2018-08-04T12:19:15.907Z,31.56
2018-08-04T12:21:44.607Z,30.72
2018-08-04T12:24:13.288Z,31.13
2018-08-04T12:26:41.948Z,31.51
2018-08-04T12:29:10.943Z,31.00
2018-08-04T12:31:40.278Z,31.23
2018-08-04T12:34:09.112Z,30.68
2018-08-04T12:36:37.993Z,29.95
2018-08-04T12:39:09.197Z,29.25
2018-08-04T12:41:38.229Z,28.77
2018-08-04T12:44:07.584Z,28.55
2018-08-04T12:46:36.350Z,28.43
2018-08-04T12:49:04.966Z,29.23
2018-08-04T12:51:33.571Z,29.55
2018-08-04T12:54:02.413Z,29.66
2018-08-04T12:56:31.074Z,30.14
2018-08-04T12:58:59.881Z,30.19
2018-08-04T13:01:28.484Z,30.31
2018-08-04T13:03:57.136Z,30.62
2018-08-04T13:06:25.902Z,30.51
2018-08-04T13:08:54.603Z,30.78
2018-08-04T13:11:23.928Z,30.55
2018-08-04T13:13:52.807Z,30.46
2018-08-04T13:16:21.517Z,29.60
2018-08-04T13:18:50.201Z,29.82
2018-08-04T13:21:18.930Z,29.97
2018-08-04T13:23:47.608Z,29.55
2018-08-04T13:26:16.495Z,29.18
2018-08-04T13:28:45.421Z,29.61
2018-08-04T13:31:14.423Z,29.47
2018-08-04T13:33:43.136Z,29.23
2018-08-04T13:36:11.880Z,29.13
2018-08-04T13:38:40.584Z,27.75
2018-08-04T13:41:09.349Z,29.53
2018-08-04T13:43:38.344Z,29.85
2018-08-04T13:46:07.140Z,29.39
2018-08-04T13:48:36.854Z,29.05
2018-08-04T13:51:05.860Z,28.90
2018-08-04T13:53:34.523Z,29.11
2018-08-04T13:56:04.156Z,29.01
2018-08-04T13:58:32.841Z,28.86
2018-08-04T14:01:01.623Z,28.89
2018-08-04T14:03:30.353Z,28.79
2018-08-04T14:05:59.105Z,28.69
2018-08-04T14:08:27.938Z,28.63
2018-08-04T14:10:56.658Z,28.66
2018-08-04T14:13:25.606Z,28.59
2018-08-04T14:15:54.313Z,28.47
2018-08-04T14:18:22.988Z,28.24
2018-08-04T14:20:51.631Z,28.19
2018-08-04T14:23:20.245Z,28.42
2018-08-04T14:25:48.867Z,28.41
2018-08-04T14:28:17.641Z,28.37
2018-08-04T14:30:46.565Z,28.24
2018-08-04T14:33:15.238Z,28.45
2018-08-04T14:35:43.863Z,28.37
2018-08-04T14:38:12.551Z,28.40
2018-08-04T14:40:41.211Z,28.18
2018-08-04T14:43:09.847Z,28.16
2018-08-04T14:45:38.795Z,28.16
2018-08-04T14:48:07.423Z,28.15
2018-08-04T14:50:36.204Z,28.08
2018-08-04T14:53:04.915Z,27.83
2018-08-04T14:55:33.598Z,27.88
2018-08-04T14:58:02.264Z,28.09
2018-08-04T15:00:30.962Z,28.16
2018-08-04T15:02:59.595Z,28.03
2018-08-04T15:05:28.244Z,28.01
2018-08-04T15:07:56.895Z,28.06
2018-08-04T15:10:25.604Z,27.88
2018-08-04T15:12:54.210Z,27.67
2018-08-04T15:15:22.832Z,27.50
2018-08-04T15:17:51.762Z,27.45
2018-08-04T15:20:20.699Z,27.35
2018-08-04T15:22:49.578Z,27.40
2018-08-04T15:25:18.202Z,27.48
2018-08-04T15:27:47.517Z,27.42
2018-08-04T15:30:16.282Z,27.47
2018-08-04T15:32:45.159Z,27.41
2018-08-04T15:35:14.333Z,27.30
2018-08-04T15:37:43.291Z,27.30
2018-08-04T15:40:12.231Z,27.22
2018-08-04T15:42:41.062Z,27.20
2018-08-04T15:45:09.802Z,27.22
2018-08-04T15:47:38.585Z,27.21
2018-08-04T15:50:07.447Z,27.08
2018-08-04T15:52:36.228Z,26.91
2018-08-04T15:55:05.332Z,26.92
2018-08-04T15:57:34.291Z,26.81
2018-08-04T16:00:02.949Z,26.89
2018-08-04T16:02:31.729Z,26.99
2018-08-04T16:05:00.439Z,26.92
2018-08-04T16:07:30.015Z,26.88
2018-08-04T16:09:59.022Z,26.73
2018-08-04T16:12:27.944Z,26.69
2018-08-04T16:14:56.607Z,26.58
2018-08-04T16:17:25.500Z,26.50
2018-08-04T16:19:54.555Z,26.52
2018-08-04T16:22:23.360Z,26.44
2018-08-04T16:24:52.293Z,26.34
2018-08-04T16:27:20.911Z,26.22
2018-08-04T16:29:49.545Z,26.19
2018-08-04T16:32:18.184Z,26.15
2018-08-04T16:34:46.815Z,26.15
2018-08-04T16:37:15.742Z,26.12
2018-08-04T16:39:44.410Z,26.10
2018-08-04T16:42:13.031Z,26.02
2018-08-04T16:44:42.023Z,25.96
2018-08-04T16:47:10.733Z,25.99
2018-08-04T16:49:39.344Z,26.00
2018-08-04T16:52:08.304Z,25.96
2018-08-04T16:54:36.915Z,25.86
2018-08-04T16:57:05.650Z,25.79
2018-08-04T16:59:34.331Z,25.72
2018-08-04T17:02:02.963Z,25.66
2018-08-04T17:04:31.980Z,25.59
2018-08-04T17:07:00.604Z,25.52
2018-08-04T17:09:29.194Z,25.45
2018-08-04T17:11:57.891Z,25.40
2018-08-04T17:14:26.575Z,25.39
2018-08-04T17:16:55.251Z,25.34
2018-08-04T17:19:23.948Z,25.30
2018-08-04T17:21:52.693Z,25.28
2018-08-04T17:24:21.280Z,25.18
2018-08-04T17:26:50.347Z,25.15
2018-08-04T17:29:19.163Z,25.08
2018-08-04T17:31:47.818Z,25.03
2018-08-04T17:34:16.522Z,24.96
2018-08-04T17:36:45.119Z,24.88
2018-08-04T17:39:13.733Z,24.86
2018-08-04T17:41:42.332Z,24.91
2018-08-04T17:44:10.991Z,24.81
2018-08-04T17:46:39.587Z,24.77
2018-08-04T17:49:08.210Z,24.70
2018-08-04T17:51:36.859Z,24.63
2018-08-04T17:54:05.556Z,24.61
2018-08-04T17:56:34.199Z,24.56
2018-08-04T17:59:02.834Z,24.51
2018-08-04T18:01:31.420Z,24.42
2018-08-04T18:04:00.117Z,24.36
2018-08-04T18:06:28.736Z,24.28
2018-08-04T18:08:57.462Z,24.17
2018-08-04T18:11:26.196Z,24.10
2018-08-04T18:13:54.863Z,24.10
2018-08-04T18:16:23.476Z,24.10
2018-08-04T18:18:52.112Z,24.13
2018-08-04T18:21:20.778Z,24.13
2018-08-04T18:23:49.411Z,24.14
2018-08-04T18:26:18.033Z,24.12
2018-08-04T18:28:46.707Z,24.01
2018-08-04T18:31:15.318Z,23.98
2018-08-04T18:33:43.908Z,24.06
2018-08-04T18:36:12.540Z,24.03
2018-08-04T18:38:41.153Z,23.95
2018-08-04T18:41:09.862Z,23.96
2018-08-04T18:43:38.469Z,23.93
2018-08-04T18:46:07.128Z,23.93
2018-08-04T18:48:35.740Z,23.90
2018-08-04T18:51:04.388Z,23.88
2018-08-04T18:53:33.054Z,23.75
2018-08-04T18:56:01.670Z,23.70
2018-08-04T18:58:30.262Z,23.65
2018-08-04T19:00:58.981Z,23.64
2018-08-04T19:03:27.616Z,23.59
2018-08-04T19:05:56.222Z,23.58
2018-08-04T19:08:24.862Z,23.54
2018-08-04T19:10:53.589Z,23.54
2018-08-04T19:13:22.219Z,23.53
2018-08-04T19:15:50.843Z,23.52
2018-08-04T19:18:19.426Z,23.54
2018-08-04T19:20:48.090Z,23.55
2018-08-04T19:23:16.723Z,23.54
2018-08-04T19:25:45.400Z,23.52
2018-08-04T19:28:14.031Z,23.31
2018-08-04T19:30:42.710Z,23.24
2018-08-04T19:33:11.326Z,23.22
2018-08-04T19:35:39.952Z,23.21
2018-08-04T19:38:08.602Z,23.13
2018-08-04T19:40:37.246Z,23.01
2018-08-04T19:43:06.165Z,22.93
2018-08-04T19:45:34.780Z,22.79
2018-08-04T19:48:03.421Z,22.71
2018-08-04T19:50:32.112Z,22.64
2018-08-04T19:53:00.740Z,22.59
2018-08-04T19:55:29.520Z,22.58
2018-08-04T19:57:58.160Z,22.65
2018-08-04T20:00:26.788Z,22.62
2018-08-04T20:02:55.362Z,22.50
2018-08-04T20:05:23.975Z,22.14
2018-08-04T20:07:52.644Z,22.41
2018-08-04T20:10:21.225Z,22.35
2018-08-04T20:12:49.897Z,22.29
2018-08-04T20:15:18.656Z,22.31
2018-08-04T20:17:47.454Z,22.24
2018-08-04T20:20:16.128Z,22.17
2018-08-04T20:22:44.759Z,22.15
2018-08-04T20:25:13.380Z,22.13
2018-08-04T20:27:41.970Z,22.16
2018-08-04T20:30:10.610Z,22.27
2018-08-04T20:32:39.211Z,22.47
2018-08-04T20:35:07.830Z,22.37
2018-08-04T20:37:36.459Z,22.50
2018-08-04T20:40:05.291Z,22.42
2018-08-04T20:42:34.043Z,22.36
2018-08-04T20:45:02.692Z,22.41
2018-08-04T20:47:31.352Z,22.49
2018-08-04T20:50:00.000Z,22.43
2018-08-04T20:52:28.689Z,22.35
2018-08-04T20:54:57.364Z,22.35
2018-08-04T20:57:26.051Z,22.30
2018-08-04T20:59:54.644Z,22.29
2018-08-04T21:02:23.311Z,22.21
2018-08-04T21:04:51.957Z,22.22
2018-08-04T21:07:20.684Z,22.19
2018-08-04T21:09:49.382Z,22.29
2018-08-04T21:12:18.004Z,22.39
2018-08-04T21:14:46.724Z,22.47
2018-08-04T21:17:15.408Z,22.46
2018-08-04T21:19:44.076Z,22.19
2018-08-04T21:22:12.695Z,22.21
2018-08-04T21:24:41.359Z,22.16
2018-08-04T21:27:10.001Z,22.19
2018-08-04T21:29:38.718Z,22.18
2018-08-04T21:32:07.349Z,22.12
2018-08-04T21:34:36.100Z,22.10
2018-08-04T21:37:04.793Z,22.12
2018-08-04T21:39:33.475Z,21.99
2018-08-04T21:42:02.102Z,21.98
2018-08-04T21:44:30.775Z,21.97
2018-08-04T21:46:59.459Z,21.93
2018-08-04T21:49:28.207Z,22.02
2018-08-04T21:51:56.808Z,22.07
2018-08-04T21:54:25.499Z,22.07
2018-08-04T21:56:54.125Z,22.08
2018-08-04T21:59:22.772Z,22.14
2018-08-04T22:01:54.948Z,21.97
2018-08-04T22:04:23.564Z,21.84
2018-08-04T22:08:03.846Z,21.81
2018-08-04T22:10:32.539Z,21.80
2018-08-04T22:13:01.315Z,21.70
2018-08-04T22:15:29.990Z,21.73
2018-08-04T22:17:58.747Z,21.72
2018-08-04T22:20:27.860Z,21.52
2018-08-04T22:22:56.512Z,21.32
2018-08-04T22:25:27.334Z,21.25
2018-08-04T22:27:56.539Z,21.43
2018-08-04T22:30:25.487Z,21.61
2018-08-04T22:32:54.187Z,21.55
2018-08-04T22:35:23.126Z,21.24
2018-08-04T22:37:52.239Z,20.99
2018-08-04T22:40:21.626Z,21.01
2018-08-04T22:42:50.270Z,20.99
2018-08-04T22:46:08.195Z,20.78
2018-08-04T22:48:36.946Z,20.48
2018-08-04T22:51:05.619Z,20.47
2018-08-04T22:53:34.423Z,20.22
2018-08-04T22:56:03.068Z,20.16
2018-08-04T22:58:31.698Z,20.13
2018-08-04T23:01:00.322Z,20.01
2018-08-04T23:03:28.974Z,20.03
2018-08-04T23:05:57.611Z,20.04
2018-08-04T23:08:26.236Z,20.05
2018-08-04T23:10:54.944Z,19.98
2018-08-04T23:13:23.643Z,19.90
2018-08-04T23:15:52.303Z,19.80
2018-08-04T23:18:20.926Z,19.64
2018-08-04T23:20:49.594Z,19.65
2018-08-04T23:23:18.271Z,19.57
2018-08-04T23:25:46.896Z,19.49
2018-08-04T23:28:15.502Z,19.49
2018-08-04T23:30:44.130Z,19.54
2018-08-04T23:33:12.766Z,19.50
2018-08-04T23:35:41.346Z,19.45
2018-08-04T23:38:10.030Z,19.33
2018-08-04T23:40:38.634Z,19.25
2018-08-04T23:43:07.374Z,19.30
2018-08-04T23:45:35.993Z,19.29
2018-08-04T23:48:04.635Z,19.22
2018-08-04T23:50:33.354Z,19.13
2018-08-04T23:53:02.020Z,19.11
2018-08-04T23:55:30.874Z,19.10
2018-08-04T23:57:59.506Z,19.10
